createdAt,value
2018-12-06T00:00:42.761Z,8.50
2018-12-06T00:03:09.014Z,8.60
2018-12-06T00:05:35.287Z,8.60
2018-12-06T00:08:12.674Z,8.60
2018-12-06T00:10:38.956Z,8.70
2018-12-06T00:13:05.205Z,8.70
2018-12-06T00:15:31.486Z,8.70
2018-12-06T00:17:57.846Z,8.70
2018-12-06T00:20:24.126Z,8.70
2018-12-06T00:22:50.381Z,8.70
2018-12-06T00:25:16.658Z,8.70
2018-12-06T00:27:49.889Z,8.70
2018-12-06T00:30:28.669Z,8.70
2018-12-06T00:32:55.042Z,8.70
2018-12-06T00:35:21.435Z,8.70
2018-12-06T00:37:47.690Z,8.70
2018-12-06T00:40:13.969Z,8.70
2018-12-06T00:42:40.326Z,8.70
2018-12-06T00:45:06.689Z,8.70
2018-12-06T00:47:32.959Z,8.70
2018-12-06T00:49:59.205Z,8.70
2018-12-06T00:52:25.469Z,8.70
2018-12-06T00:54:51.733Z,8.70
2018-12-06T00:57:18.007Z,8.70
2018-12-06T00:59:51.308Z,8.60
2018-12-06T01:02:17.585Z,8.60
2018-12-06T01:04:43.942Z,8.60
2018-12-06T01:07:10.229Z,8.60
2018-12-06T01:09:36.593Z,8.60
2018-12-06T01:12:02.889Z,8.60
2018-12-06T01:14:35.162Z,8.50
2018-12-06T01:17:01.453Z,8.50
2018-12-06T01:19:27.705Z,8.60
2018-12-06T01:21:53.965Z,8.60
2018-12-06T01:24:20.230Z,8.70
2018-12-06T01:26:46.498Z,8.60
2018-12-06T01:29:12.760Z,8.60
2018-12-06T01:31:39.025Z,8.60
2018-12-06T01:34:05.529Z,8.70
2018-12-06T01:36:31.732Z,8.70
2018-12-06T01:38:58.003Z,8.70
2018-12-06T01:41:24.249Z,8.70
2018-12-06T01:43:50.628Z,8.70
2018-12-06T01:46:16.885Z,8.70
2018-12-06T01:48:43.478Z,8.80
2018-12-06T01:51:09.733Z,8.80
2018-12-06T01:53:42.890Z,8.80
2018-12-06T01:56:09.146Z,8.80
2018-12-06T01:58:35.411Z,8.80
2018-12-06T02:01:01.661Z,8.80
2018-12-06T02:03:27.934Z,8.80
2018-12-06T02:05:54.301Z,8.80
2018-12-06T02:08:20.574Z,8.90
2018-12-06T02:10:46.850Z,8.90
2018-12-06T02:13:13.122Z,8.90
2018-12-06T02:15:39.381Z,9.00
2018-12-06T02:18:05.661Z,9.00
2018-12-06T02:20:31.930Z,9.00
2018-12-06T02:22:58.198Z,9.10
2018-12-06T02:25:24.454Z,9.10
2018-12-06T02:27:50.695Z,9.20
2018-12-06T02:30:16.970Z,9.20
2018-12-06T02:32:43.221Z,9.20
2018-12-06T02:35:09.491Z,9.20
2018-12-06T02:37:35.750Z,9.20
2018-12-06T02:40:04.157Z,9.20
2018-12-06T02:42:30.314Z,9.20
2018-12-06T02:44:56.701Z,9.30
2018-12-06T02:47:22.966Z,9.30
2018-12-06T02:49:56.313Z,9.30
2018-12-06T02:52:22.703Z,9.30
2018-12-06T02:54:48.971Z,9.40
2018-12-06T02:57:15.233Z,9.40
2018-12-06T02:59:41.604Z,9.40
2018-12-06T03:02:07.985Z,9.40
2018-12-06T03:04:34.354Z,9.40
2018-12-06T03:07:00.624Z,9.40
2018-12-06T03:09:26.882Z,9.50
2018-12-06T03:11:53.150Z,9.40
2018-12-06T03:14:19.403Z,9.40
2018-12-06T03:16:45.698Z,9.50
2018-12-06T03:19:11.973Z,9.40
2018-12-06T03:21:38.240Z,9.40
2018-12-06T03:24:04.587Z,9.40
2018-12-06T03:26:30.865Z,9.40
2018-12-06T03:28:57.113Z,9.40
2018-12-06T03:31:23.387Z,9.30
2018-12-06T03:33:49.643Z,9.30
2018-12-06T03:36:16.042Z,9.30
2018-12-06T03:38:42.306Z,9.30
2018-12-06T03:41:08.581Z,9.30
2018-12-06T03:43:34.850Z,9.30
2018-12-06T03:46:01.358Z,9.20
2018-12-06T03:48:27.605Z,9.20
2018-12-06T03:50:53.870Z,9.20
2018-12-06T03:53:20.153Z,9.20
2018-12-06T03:55:46.397Z,9.20
2018-12-06T03:58:12.662Z,9.20
2018-12-06T04:00:38.923Z,9.30
2018-12-06T04:03:05.310Z,9.20
2018-12-06T04:05:31.583Z,9.20
2018-12-06T04:07:57.865Z,9.20
2018-12-06T04:10:24.109Z,9.20
2018-12-06T04:12:50.493Z,9.20
2018-12-06T04:15:16.734Z,9.20
2018-12-06T04:17:43.004Z,9.20
2018-12-06T04:20:09.256Z,9.30
2018-12-06T04:22:35.527Z,9.30
2018-12-06T04:25:01.912Z,9.40
2018-12-06T04:27:28.233Z,9.30
2018-12-06T04:29:54.478Z,9.40
2018-12-06T04:32:20.743Z,9.30
2018-12-06T04:34:46.994Z,9.30
2018-12-06T04:37:13.434Z,9.40
2018-12-06T04:39:39.673Z,9.40
2018-12-06T04:42:05.929Z,9.40
2018-12-06T04:44:32.169Z,9.40
2018-12-06T04:46:58.436Z,9.40
2018-12-06T04:49:24.705Z,9.40
2018-12-06T04:51:50.954Z,9.40
2018-12-06T04:54:17.239Z,9.40
2018-12-06T04:56:43.490Z,9.50
2018-12-06T04:59:09.762Z,9.50
2018-12-06T05:01:36.013Z,9.50
2018-12-06T05:04:02.308Z,9.50
2018-12-06T05:06:28.672Z,9.60
2018-12-06T05:08:54.946Z,9.60
2018-12-06T05:11:21.199Z,9.60
2018-12-06T05:13:47.468Z,9.70
2018-12-06T05:16:13.751Z,9.70
2018-12-06T05:18:40.022Z,9.70
2018-12-06T05:21:06.290Z,9.70
2018-12-06T05:23:32.649Z,9.70
2018-12-06T05:25:58.917Z,9.70
2018-12-06T05:28:25.166Z,9.70
2018-12-06T05:30:51.429Z,9.70
2018-12-06T05:33:17.669Z,9.80
2018-12-06T05:35:43.938Z,9.80
2018-12-06T05:38:10.189Z,9.80
2018-12-06T05:40:36.450Z,9.80
2018-12-06T05:43:02.849Z,9.80
2018-12-06T05:45:29.132Z,9.80
2018-12-06T05:47:55.481Z,9.80
2018-12-06T05:50:21.801Z,9.80
2018-12-06T05:52:48.063Z,9.90
2018-12-06T05:55:14.449Z,9.80
2018-12-06T05:57:40.714Z,9.80
2018-12-06T06:00:07.338Z,9.80
2018-12-06T06:02:33.601Z,9.80
2018-12-06T06:04:59.845Z,9.80
2018-12-06T06:07:26.114Z,9.80
2018-12-06T06:09:52.359Z,9.80
2018-12-06T06:12:18.621Z,9.80
2018-12-06T06:14:44.918Z,9.80
2018-12-06T06:17:11.205Z,9.80
2018-12-06T06:19:37.453Z,9.90
2018-12-06T06:22:03.634Z,9.90
2018-12-06T06:24:29.898Z,9.90
2018-12-06T06:26:56.170Z,9.90
2018-12-06T06:29:22.441Z,9.90
2018-12-06T06:31:48.709Z,9.90
2018-12-06T06:34:14.956Z,10.00
2018-12-06T06:36:41.221Z,10.00
2018-12-06T06:39:07.605Z,10.00
2018-12-06T06:41:33.978Z,10.00
2018-12-06T06:44:00.362Z,9.90
2018-12-06T06:46:26.614Z,10.00
2018-12-06T06:48:52.914Z,10.00
2018-12-06T06:51:19.187Z,10.00
2018-12-06T06:53:52.398Z,10.10
2018-12-06T06:56:18.849Z,10.10
2018-12-06T06:58:45.113Z,10.10
2018-12-06T07:01:11.356Z,10.10
2018-12-06T07:03:37.605Z,10.20
2018-12-06T07:06:03.849Z,10.20
2018-12-06T07:08:37.189Z,10.20
2018-12-06T07:11:03.471Z,10.30
2018-12-06T07:13:29.718Z,10.30
2018-12-06T07:15:55.986Z,10.20
2018-12-06T07:18:22.225Z,10.20
2018-12-06T07:20:48.569Z,10.30
2018-12-06T07:23:14.726Z,10.30
2018-12-06T07:25:46.364Z,10.30
2018-12-06T07:28:09.162Z,10.40
2018-12-06T07:30:35.417Z,10.40
2018-12-06T07:33:01.661Z,10.40
2018-12-06T07:35:27.937Z,10.40
2018-12-06T07:37:54.181Z,10.40
2018-12-06T07:40:20.826Z,10.40
2018-12-06T07:42:47.065Z,10.40
2018-12-06T07:45:28.658Z,10.40
2018-12-06T07:47:54.905Z,10.50
2018-12-06T07:50:21.222Z,10.50
2018-12-06T07:52:47.465Z,10.40
2018-12-06T07:55:13.758Z,10.50
2018-12-06T07:57:40.009Z,10.50
2018-12-06T08:00:07.966Z,10.50
2018-12-06T08:02:34.219Z,10.50
2018-12-06T08:05:00.491Z,10.60
2018-12-06T08:07:26.733Z,10.60
2018-12-06T08:09:53.008Z,10.60
2018-12-06T08:12:19.301Z,10.60
2018-12-06T08:14:45.557Z,10.70
2018-12-06T08:17:11.816Z,10.70
2018-12-06T08:19:38.070Z,10.80
2018-12-06T08:22:04.237Z,10.80
2018-12-06T08:24:30.549Z,10.90
2018-12-06T08:27:03.789Z,10.90
2018-12-06T08:29:30.038Z,10.90
2018-12-06T08:31:56.311Z,11.00
2018-12-06T08:34:22.681Z,11.20
2018-12-06T08:36:48.953Z,11.30
2018-12-06T08:39:22.086Z,11.50
2018-12-06T08:41:48.472Z,11.50
2018-12-06T08:44:44.798Z,11.50
2018-12-06T08:47:11.202Z,11.60
2018-12-06T08:49:37.466Z,11.70
2018-12-06T08:52:03.741Z,11.70
2018-12-06T08:54:30.041Z,11.80
2018-12-06T08:56:56.309Z,11.80
2018-12-06T08:59:22.555Z,11.80
2018-12-06T09:01:48.822Z,11.80
2018-12-06T09:04:15.079Z,11.80
2018-12-06T09:06:41.359Z,11.90
2018-12-06T09:09:07.614Z,11.90
2018-12-06T09:11:33.994Z,11.90
2018-12-06T09:14:00.258Z,12.00
2018-12-06T09:16:26.518Z,12.10
2018-12-06T09:18:52.813Z,12.20
2018-12-06T09:21:19.066Z,12.30
2018-12-06T09:23:52.410Z,12.30
2018-12-06T09:26:18.665Z,12.40
2018-12-06T09:28:44.939Z,12.50
2018-12-06T09:31:11.315Z,12.60
2018-12-06T09:33:49.874Z,12.70
2018-12-06T09:36:16.121Z,12.70
2018-12-06T09:38:42.497Z,12.80
2018-12-06T09:41:08.868Z,12.80
2018-12-06T09:43:35.271Z,12.80
2018-12-06T09:46:01.514Z,12.80
2018-12-06T09:48:27.910Z,12.80
2018-12-06T09:50:54.212Z,13.00
2018-12-06T09:53:27.643Z,13.00
2018-12-06T09:55:53.901Z,13.00
2018-12-06T09:58:20.161Z,13.10
2018-12-06T10:00:46.526Z,13.10
2018-12-06T10:03:12.787Z,13.20
2018-12-06T10:05:39.037Z,13.10
2018-12-06T10:08:05.297Z,13.10
2018-12-06T10:10:31.546Z,13.20
2018-12-06T10:12:57.817Z,13.20
2018-12-06T10:15:24.186Z,13.20
2018-12-06T10:17:50.431Z,13.20
2018-12-06T10:20:16.819Z,13.20
2018-12-06T10:22:43.085Z,13.10
2018-12-06T10:25:09.357Z,13.10
2018-12-06T10:27:35.598Z,13.10
2018-12-06T10:30:02.538Z,13.10
2018-12-06T10:32:28.782Z,13.00
2018-12-06T10:34:55.051Z,13.10
2018-12-06T10:37:21.314Z,13.10
2018-12-06T10:39:47.569Z,13.00
2018-12-06T10:42:13.817Z,12.90
2018-12-06T10:44:40.094Z,13.10
2018-12-06T10:47:06.341Z,13.00
2018-12-06T10:49:32.617Z,12.90
2018-12-06T10:51:58.884Z,12.90
2018-12-06T10:54:25.167Z,12.90
2018-12-06T10:56:51.547Z,12.80
2018-12-06T10:59:17.802Z,12.80
2018-12-06T11:01:49.205Z,12.90
2018-12-06T11:04:15.461Z,12.90
2018-12-06T11:06:48.637Z,13.00
2018-12-06T11:09:14.885Z,13.20
2018-12-06T11:11:41.155Z,13.30
2018-12-06T11:14:07.525Z,13.30
2018-12-06T11:16:33.805Z,13.40
2018-12-06T11:18:59.954Z,13.50
2018-12-06T11:21:26.218Z,13.60
2018-12-06T11:23:52.589Z,13.70
2018-12-06T11:26:18.846Z,13.70
2018-12-06T11:28:45.104Z,13.70
2018-12-06T11:31:11.390Z,13.70
2018-12-06T11:33:37.650Z,13.60
2018-12-06T11:36:03.923Z,13.70
2018-12-06T11:38:30.272Z,13.80
2018-12-06T11:40:56.794Z,13.90
2018-12-06T11:43:23.041Z,13.90
2018-12-06T11:45:49.310Z,13.70
2018-12-06T11:48:15.577Z,13.70
2018-12-06T11:50:41.826Z,13.60
2018-12-06T11:53:08.087Z,13.70
2018-12-06T11:55:34.584Z,13.60
2018-12-06T11:58:00.949Z,13.70
2018-12-06T12:00:27.342Z,13.70
2018-12-06T12:02:53.614Z,13.70
2018-12-06T12:05:19.881Z,13.70
2018-12-06T12:07:46.149Z,13.70
2018-12-06T12:10:12.413Z,13.70
2018-12-06T12:12:38.698Z,13.70
2018-12-06T12:15:06.390Z,13.60
2018-12-06T12:17:32.690Z,13.50
2018-12-06T12:19:58.956Z,13.50
2018-12-06T12:22:25.213Z,13.50
2018-12-06T12:24:51.473Z,13.40
2018-12-06T12:27:17.710Z,13.30
2018-12-06T12:29:44.034Z,13.30
2018-12-06T12:32:10.277Z,13.30
2018-12-06T12:34:36.556Z,13.30
2018-12-06T12:37:02.824Z,13.30
2018-12-06T12:39:29.082Z,13.30
2018-12-06T12:41:55.350Z,13.20
2018-12-06T12:44:21.625Z,13.20
2018-12-06T12:46:47.892Z,13.20
2018-12-06T12:49:14.142Z,13.20
2018-12-06T12:51:40.402Z,13.20
2018-12-06T12:54:06.654Z,13.20
2018-12-06T12:56:32.961Z,13.20
2018-12-06T12:58:59.229Z,13.20
2018-12-06T13:01:25.489Z,13.20
2018-12-06T13:03:51.741Z,13.20
2018-12-06T13:06:18.022Z,13.20
2018-12-06T13:08:44.278Z,13.20
2018-12-06T13:11:10.565Z,13.20
2018-12-06T13:13:36.809Z,13.30
2018-12-06T13:16:10.109Z,13.20
2018-12-06T13:18:36.370Z,13.30
2018-12-06T13:21:02.853Z,13.40
2018-12-06T13:23:29.117Z,13.30
2018-12-06T13:25:55.394Z,13.30
2018-12-06T13:28:21.657Z,13.40
2018-12-06T13:30:48.035Z,13.50
2018-12-06T13:33:14.309Z,13.40
2018-12-06T13:35:40.462Z,13.40
2018-12-06T13:38:06.758Z,13.50
2018-12-06T13:40:33.110Z,13.60
2018-12-06T13:42:59.518Z,13.60
2018-12-06T13:45:25.777Z,13.60
2018-12-06T13:47:52.073Z,13.60
2018-12-06T13:50:18.350Z,13.50
2018-12-06T13:52:44.509Z,13.60
2018-12-06T13:55:10.790Z,13.60
2018-12-06T13:57:37.042Z,13.50
2018-12-06T14:00:04.879Z,13.40
2018-12-06T14:02:31.130Z,13.40
2018-12-06T14:04:57.433Z,13.40
2018-12-06T14:07:23.700Z,13.40
2018-12-06T14:09:49.976Z,13.30
2018-12-06T14:12:16.324Z,13.30
2018-12-06T14:14:42.590Z,13.20
2018-12-06T14:17:08.851Z,13.20
2018-12-06T14:19:35.110Z,13.10
2018-12-06T14:22:01.366Z,13.10
2018-12-06T14:24:27.617Z,13.10
2018-12-06T14:26:53.879Z,13.10
2018-12-06T14:29:20.130Z,13.10
2018-12-06T14:31:46.397Z,13.10
2018-12-06T14:34:12.774Z,13.00
2018-12-06T14:36:39.045Z,13.10
2018-12-06T14:39:07.038Z,13.10
2018-12-06T14:41:33.301Z,13.10
2018-12-06T14:43:59.667Z,13.10
2018-12-06T14:46:25.941Z,13.00
2018-12-06T14:48:52.190Z,13.10
2018-12-06T14:51:18.542Z,13.00
2018-12-06T14:53:44.842Z,13.00
2018-12-06T14:56:11.137Z,13.00
2018-12-06T14:58:37.378Z,12.90
2018-12-06T15:01:03.654Z,12.90
2018-12-06T15:03:29.905Z,12.90
2018-12-06T15:05:56.181Z,12.90
2018-12-06T15:08:29.494Z,12.80
2018-12-06T15:10:55.770Z,12.90
2018-12-06T15:13:22.026Z,12.90
2018-12-06T15:15:48.302Z,12.80
2018-12-06T15:18:14.557Z,12.80
2018-12-06T15:20:40.817Z,12.90
2018-12-06T15:23:07.173Z,12.90
2018-12-06T15:25:33.422Z,12.90
2018-12-06T15:27:59.685Z,12.90
2018-12-06T15:30:25.944Z,12.80
2018-12-06T15:32:52.211Z,12.80
2018-12-06T15:35:18.467Z,12.80
2018-12-06T15:37:44.733Z,12.80
2018-12-06T15:40:11.305Z,12.80
2018-12-06T15:42:37.585Z,12.80
2018-12-06T15:45:04.574Z,12.80
2018-12-06T15:47:30.862Z,12.70
2018-12-06T15:49:57.114Z,12.80
2018-12-06T15:52:38.486Z,12.70
2018-12-06T15:55:05.684Z,12.70
2018-12-06T15:57:32.066Z,12.70
2018-12-06T15:59:58.378Z,12.70
2018-12-06T16:02:24.637Z,12.70
2018-12-06T16:04:50.818Z,12.70
2018-12-06T16:07:17.090Z,12.70
2018-12-06T16:09:43.364Z,12.60
2018-12-06T16:12:09.701Z,12.60
2018-12-06T16:14:35.994Z,12.60
2018-12-06T16:17:02.270Z,12.60
2018-12-06T16:19:28.558Z,12.60
2018-12-06T16:21:54.809Z,12.60
2018-12-06T16:24:21.085Z,12.70
2018-12-06T16:26:47.354Z,12.70
2018-12-06T16:29:13.627Z,12.80
2018-12-06T16:31:39.886Z,12.80
2018-12-06T16:34:06.273Z,12.70
2018-12-06T16:36:32.546Z,12.70
2018-12-06T16:38:58.874Z,12.70
2018-12-06T16:41:25.120Z,12.70
2018-12-06T16:43:51.406Z,12.80
2018-12-06T16:46:17.665Z,12.70
2018-12-06T16:48:44.157Z,12.70
2018-12-06T16:51:10.415Z,12.70
2018-12-06T16:53:36.681Z,12.70
2018-12-06T16:56:03.058Z,12.70
2018-12-06T16:58:29.322Z,12.60
2018-12-06T17:00:55.562Z,12.60
2018-12-06T17:03:21.848Z,12.60
2018-12-06T17:05:48.210Z,12.60
2018-12-06T17:08:14.487Z,12.60
2018-12-06T17:10:40.786Z,12.60
2018-12-06T17:13:07.034Z,12.60
2018-12-06T17:15:33.304Z,12.60
2018-12-06T17:17:59.609Z,12.60
2018-12-06T17:20:25.784Z,12.60
2018-12-06T17:22:52.041Z,12.70
2018-12-06T17:25:18.321Z,12.70
2018-12-06T17:27:44.733Z,12.70
2018-12-06T17:30:11.262Z,12.70
2018-12-06T17:32:37.646Z,12.70
2018-12-06T17:35:04.441Z,12.80
2018-12-06T17:37:30.783Z,12.70
2018-12-06T17:39:57.053Z,12.70
2018-12-06T17:42:23.341Z,12.70
2018-12-06T17:44:49.618Z,12.70
2018-12-06T17:47:15.895Z,12.60
2018-12-06T17:49:42.277Z,12.60
2018-12-06T17:52:08.560Z,12.60
2018-12-06T17:54:34.838Z,12.60
2018-12-06T17:57:01.101Z,12.60
2018-12-06T17:59:27.383Z,12.50
2018-12-06T18:01:53.630Z,12.50
2018-12-06T18:04:19.885Z,12.50
2018-12-06T18:06:46.321Z,12.50
2018-12-06T18:09:12.582Z,12.50
2018-12-06T18:11:38.861Z,12.50
2018-12-06T18:14:05.137Z,12.50
2018-12-06T18:16:31.425Z,12.50
2018-12-06T18:18:57.698Z,12.40
2018-12-06T18:21:23.966Z,12.50
2018-12-06T18:23:50.218Z,12.50
2018-12-06T18:26:16.486Z,12.50
2018-12-06T18:28:42.747Z,12.40
2018-12-06T18:31:09.133Z,12.40
2018-12-06T18:33:35.377Z,12.40
2018-12-06T18:36:01.678Z,12.40
2018-12-06T18:38:27.939Z,12.40
2018-12-06T18:40:54.194Z,12.40
2018-12-06T18:43:20.458Z,12.40
2018-12-06T18:45:46.769Z,12.40
2018-12-06T18:48:13.053Z,12.40
2018-12-06T18:50:39.306Z,12.30
2018-12-06T18:53:05.702Z,12.30
2018-12-06T18:55:31.949Z,12.30
2018-12-06T18:57:58.205Z,12.30
2018-12-06T19:00:24.469Z,12.40
2018-12-06T19:02:50.768Z,12.30
2018-12-06T19:05:17.038Z,12.30
2018-12-06T19:07:43.306Z,12.30
2018-12-06T19:10:09.683Z,12.30
2018-12-06T19:12:35.957Z,12.30
2018-12-06T19:15:02.589Z,12.30
2018-12-06T19:17:28.869Z,12.40
2018-12-06T19:19:55.137Z,12.40
2018-12-06T19:22:21.534Z,12.40
2018-12-06T19:24:47.790Z,12.40
2018-12-06T19:27:14.046Z,12.40
2018-12-06T19:29:40.417Z,12.40
2018-12-06T19:32:06.696Z,12.40
2018-12-06T19:34:33.285Z,12.50
2018-12-06T19:36:59.559Z,12.50
2018-12-06T19:39:25.845Z,12.60
2018-12-06T19:41:52.099Z,12.60
2018-12-06T19:44:18.409Z,12.60
2018-12-06T19:46:44.809Z,12.70
2018-12-06T19:49:11.202Z,12.70
2018-12-06T19:51:37.506Z,12.80
2018-12-06T19:54:10.662Z,12.80
2018-12-06T19:56:36.946Z,12.80
2018-12-06T19:59:03.262Z,12.90
2018-12-06T20:01:29.509Z,13.00
2018-12-06T20:03:55.761Z,13.00
2018-12-06T20:06:22.045Z,13.00
2018-12-06T20:08:48.318Z,13.00
2018-12-06T20:11:14.606Z,13.00
2018-12-06T20:13:40.902Z,13.00
2018-12-06T20:16:07.175Z,12.90
2018-12-06T20:18:33.424Z,12.90
2018-12-06T20:20:59.733Z,12.90
2018-12-06T20:23:25.981Z,12.90
2018-12-06T20:25:52.498Z,12.80
2018-12-06T20:28:26.209Z,12.80
2018-12-06T20:30:47.034Z,12.90
2018-12-06T20:33:13.290Z,12.90
2018-12-06T20:35:39.564Z,12.90
2018-12-06T20:38:05.821Z,12.90
2018-12-06T20:40:33.794Z,12.90
2018-12-06T20:43:07.203Z,12.90
2018-12-06T20:45:33.477Z,12.90
2018-12-06T20:47:59.766Z,12.90
2018-12-06T20:50:26.054Z,12.90
2018-12-06T20:52:52.330Z,13.00
2018-12-06T20:55:18.665Z,12.90
2018-12-06T20:57:44.934Z,13.00
2018-12-06T21:00:11.202Z,13.00
2018-12-06T21:02:37.469Z,13.00
2018-12-06T21:05:03.845Z,13.00
2018-12-06T21:07:30.117Z,13.10
2018-12-06T21:09:56.369Z,13.10
2018-12-06T21:12:22.638Z,13.10
2018-12-06T21:14:48.921Z,13.20
2018-12-06T21:17:15.126Z,13.20
2018-12-06T21:19:41.385Z,13.20
2018-12-06T21:22:07.658Z,13.10
2018-12-06T21:24:33.987Z,13.20
2018-12-06T21:27:00.284Z,13.20
2018-12-06T21:29:26.569Z,13.20
2018-12-06T21:31:52.978Z,13.20
2018-12-06T21:34:19.246Z,13.20
2018-12-06T21:36:45.493Z,13.10
2018-12-06T21:39:11.815Z,13.10
2018-12-06T21:41:38.038Z,13.20
2018-12-06T21:44:04.305Z,13.20
2018-12-06T21:46:30.569Z,13.20
2018-12-06T21:48:56.834Z,13.20
2018-12-06T21:51:23.095Z,13.20
2018-12-06T21:53:56.856Z,13.20
2018-12-06T21:56:23.118Z,13.20
2018-12-06T21:58:49.418Z,13.20
2018-12-06T22:01:15.701Z,13.20
2018-12-06T22:03:42.003Z,13.20
2018-12-06T22:06:08.284Z,13.30
2018-12-06T22:08:34.461Z,13.30
2018-12-06T22:11:00.762Z,13.30
2018-12-06T22:13:27.026Z,13.30
2018-12-06T22:15:53.302Z,13.30
2018-12-06T22:18:19.594Z,13.30
2018-12-06T22:20:45.820Z,13.30
2018-12-06T22:23:12.090Z,13.30
2018-12-06T22:25:38.382Z,13.20
2018-12-06T22:28:07.597Z,13.20
2018-12-06T22:30:33.916Z,13.20
2018-12-06T22:33:00.262Z,13.10
2018-12-06T22:35:26.488Z,13.20
2018-12-06T22:37:52.771Z,13.20
2018-12-06T22:40:19.061Z,13.20
2018-12-06T22:42:45.331Z,13.20
2018-12-06T22:45:20.816Z,13.20
2018-12-06T22:47:47.082Z,13.20
2018-12-06T22:50:13.364Z,13.20
2018-12-06T22:52:39.707Z,13.20
2018-12-06T22:55:12.114Z,13.20
2018-12-06T22:57:38.326Z,13.20
2018-12-06T23:00:08.629Z,13.20
2018-12-06T23:02:34.923Z,13.20
2018-12-06T23:05:01.194Z,13.20
2018-12-06T23:07:27.493Z,13.20
2018-12-06T23:09:53.796Z,13.20
2018-12-06T23:12:20.078Z,13.20
2018-12-06T23:14:46.346Z,13.20
2018-12-06T23:17:12.634Z,13.20
2018-12-06T23:19:38.906Z,13.10
2018-12-06T23:22:05.264Z,13.10
2018-12-06T23:24:31.593Z,13.10
2018-12-06T23:26:57.878Z,13.10
2018-12-06T23:29:24.146Z,13.10
2018-12-06T23:31:50.489Z,13.00
2018-12-06T23:34:16.761Z,12.90
2018-12-06T23:36:43.042Z,12.90
2018-12-06T23:39:09.302Z,12.90
2018-12-06T23:41:35.494Z,12.90
2018-12-06T23:44:01.762Z,12.80
2018-12-06T23:46:28.049Z,12.80
2018-12-06T23:48:54.322Z,12.80
2018-12-06T23:51:35.617Z,12.80
2018-12-06T23:54:01.886Z,12.80
2018-12-06T23:56:28.163Z,12.70
2018-12-06T23:58:54.454Z,12.70
